Time;durP1;ratioP1;P1;durP2;ratioP2;P2;SDS_P1;SDS_P2;PMS_P1;PMS_P2;Temp;Humidity;BMP_temperature;BMP_pressure;BME280_temperature;BME280_humidity;BME280_pressure;Samples;Min_cycle;Max_cycle;Signal;HPM_P1;HPM_P2
2024/01/28 00:00:47;;;;;;;12.80;4.03;;;7.00;99.90;;;;;;5110020;28;20204;-65
2024/01/28 00:03:17;;;;;;;17.50;4.50;;;7.00;99.90;;;;;;5110226;28;20203;-66
2024/01/28 00:05:47;;;;;;;14.23;4.70;;;7.00;99.90;;;;;;5110081;28;20247;-66
2024/01/28 00:08:16;;;;;;;13.90;4.93;;;7.00;99.90;;;;;;5097595;28;20196;-66
2024/01/28 00:10:45;;;;;;;10.13;3.63;;;7.00;99.90;;;;;;5088948;28;20655;-64
2024/01/28 00:13:13;;;;;;;9.30;4.77;;;7.00;99.90;;;;;;5089916;28;20193;-64
2024/01/28 00:15:43;;;;;;;9.83;4.30;;;7.00;99.90;;;;;;5089674;28;20202;-64
2024/01/28 00:18:11;;;;;;;11.03;3.70;;;7.00;99.90;;;;;;5089089;28;20267;-65
2024/01/28 00:20:40;;;;;;;10.57;4.33;;;7.00;99.90;;;;;;5088830;28;20204;-65
2024/01/28 00:23:08;;;;;;;16.03;4.53;;;7.00;99.90;;;;;;5089080;28;20741;-65
2024/01/28 00:25:38;;;;;;;11.23;4.03;;;6.90;99.90;;;;;;5089039;28;20223;-65
2024/01/28 00:28:07;;;;;;;10.10;4.47;;;7.00;99.90;;;;;;5088705;28;20564;-65
2024/01/28 00:30:35;;;;;;;10.57;4.80;;;6.90;99.90;;;;;;5070542;28;20245;-66
2024/01/28 00:33:04;;;;;;;9.43;3.87;;;6.80;99.90;;;;;;5088899;28;20203;-66
2024/01/28 00:35:34;;;;;;;14.33;5.23;;;6.80;99.90;;;;;;5089082;28;20193;-66
2024/01/28 00:38:03;;;;;;;15.47;4.87;;;6.80;99.90;;;;;;5088563;28;20200;-64
2024/01/28 00:40:31;;;;;;;12.07;4.20;;;6.70;99.90;;;;;;5088618;28;20678;-66
2024/01/28 00:43:03;;;;;;;14.60;5.17;;;6.70;99.90;;;;;;5088745;28;20299;-64
2024/01/28 00:45:31;;;;;;;13.67;4.67;;;6.70;99.90;;;;;;5088765;28;20232;-64
2024/01/28 00:48:00;;;;;;;11.93;4.57;;;6.60;99.90;;;;;;5088564;28;20584;-65
2024/01/28 00:50:28;;;;;;;11.80;5.10;;;6.60;99.90;;;;;;5088563;28;20196;-66
2024/01/28 00:52:56;;;;;;;13.07;4.33;;;6.70;99.90;;;;;;5088241;28;20224;-65
2024/01/28 00:55:25;;;;;;;8.60;4.13;;;6.80;99.90;;;;;;5087780;28;20609;-66
2024/01/28 00:57:53;;;;;;;14.30;4.73;;;6.80;99.90;;;;;;5088263;28;20671;-67
2024/01/28 01:00:23;;;;;;;14.60;5.97;;;6.80;99.90;;;;;;5088144;28;20218;-65
2024/01/28 01:02:52;;;;;;;14.47;4.60;;;6.80;99.90;;;;;;5088189;28;20200;-65
2024/01/28 01:05:20;;;;;;;15.57;5.10;;;6.90;99.90;;;;;;5088025;28;20221;-64
2024/01/28 01:07:48;;;;;;;10.40;4.97;;;6.90;99.90;;;;;;5088256;28;20204;-65
2024/01/28 01:10:17;;;;;;;16.73;6.13;;;6.80;99.90;;;;;;5087866;28;20204;-66
2024/01/28 01:12:45;;;;;;;13.63;4.43;;;6.80;99.90;;;;;;5087711;28;20211;-66
2024/01/28 01:15:13;;;;;;;15.50;4.90;;;6.90;99.90;;;;;;5088121;28;20255;-65
2024/01/28 01:17:44;;;;;;;23.37;5.20;;;6.90;99.90;;;;;;5069590;28;20221;-64
2024/01/28 01:20:13;;;;;;;13.47;4.73;;;6.90;99.90;;;;;;5088017;28;20223;-66
2024/01/28 01:22:41;;;;;;;13.90;4.60;;;6.90;99.90;;;;;;5088137;28;20226;-65
2024/01/28 01:25:10;;;;;;;13.77;4.77;;;6.80;99.90;;;;;;5087891;28;20216;-66
2024/01/28 01:27:38;;;;;;;16.60;4.80;;;6.80;99.90;;;;;;5087814;28;20206;-66
2024/01/28 01:30:08;;;;;;;15.73;4.77;;;6.80;99.90;;;;;;5087557;28;20220;-66
2024/01/28 01:32:38;;;;;;;15.50;4.73;;;6.70;99.90;;;;;;5087824;28;20200;-67
2024/01/28 01:35:09;;;;;;;11.90;4.40;;;6.70;99.90;;;;;;5087984;28;20201;-65
2024/01/28 01:37:37;;;;;;;16.70;5.37;;;6.70;99.90;;;;;;5088078;28;20554;-64
2024/01/28 01:40:07;;;;;;;20.17;7.10;;;6.80;99.90;;;;;;5069571;28;20208;-64
2024/01/28 01:42:35;;;;;;;17.90;5.57;;;6.80;99.90;;;;;;5087800;28;20242;-65
2024/01/28 01:45:04;;;;;;;11.93;4.53;;;6.80;99.90;;;;;;5087794;28;20220;-65
2024/01/28 01:47:32;;;;;;;15.37;5.27;;;6.80;99.90;;;;;;5087522;28;20207;-65
2024/01/28 01:50:02;;;;;;;15.63;5.20;;;6.90;99.90;;;;;;5087986;28;20569;-64
2024/01/28 01:52:32;;;;;;;19.07;5.03;;;6.90;99.90;;;;;;5087955;28;20193;-64
2024/01/28 01:55:02;;;;;;;11.93;5.03;;;6.80;99.90;;;;;;5087798;28;20193;-64
2024/01/28 01:57:31;;;;;;;16.67;5.57;;;6.90;99.90;;;;;;5087598;28;20664;-65
2024/01/28 01:59:59;;;;;;;11.17;5.27;;;7.00;99.90;;;;;;5087788;28;20200;-64
2024/01/28 02:02:28;;;;;;;14.80;4.60;;;7.10;99.90;;;;;;5087645;28;20206;-64
2024/01/28 02:04:57;;;;;;;13.90;5.10;;;7.10;99.90;;;;;;5087669;28;20197;-65
2024/01/28 02:07:26;;;;;;;15.20;5.53;;;7.10;99.90;;;;;;5087380;28;20235;-66
2024/01/28 02:09:56;;;;;;;16.43;4.57;;;7.10;99.90;;;;;;5091058;28;20196;-66
2024/01/28 02:12:24;;;;;;;17.53;4.53;;;7.00;99.90;;;;;;5090710;28;20188;-65
2024/01/28 02:15:04;;;;;;;14.80;4.80;;;7.10;99.90;;;;;;5090989;28;20198;-65
2024/01/28 02:17:32;;;;;;;15.50;5.43;;;7.00;99.90;;;;;;5091241;28;20194;-65
2024/01/28 02:20:01;;;;;;;16.80;5.20;;;7.00;99.90;;;;;;5091029;28;20201;-64
2024/01/28 02:22:29;;;;;;;18.60;5.03;;;6.90;99.90;;;;;;5090982;28;20303;-64
2024/01/28 02:24:59;;;;;;;15.17;4.60;;;7.00;99.90;;;;;;5090888;28;20251;-66
2024/01/28 02:27:27;;;;;;;18.27;5.03;;;7.00;99.90;;;;;;5090595;28;20232;-66
2024/01/28 02:29:56;;;;;;;23.27;5.27;;;7.00;99.90;;;;;;5090718;28;20222;-66
2024/01/28 02:32:24;;;;;;;12.27;6.03;;;7.00;99.90;;;;;;5090824;28;20205;-65
2024/01/28 02:34:52;;;;;;;9.63;4.20;;;7.00;99.90;;;;;;5089893;28;20188;-65
2024/01/28 02:37:21;;;;;;;15.67;4.20;;;7.00;99.90;;;;;;5088943;28;20198;-64
2024/01/28 02:39:49;;;;;;;11.73;4.23;;;7.10;99.90;;;;;;5088190;28;20186;-64
2024/01/28 02:42:19;;;;;;;16.07;4.37;;;7.10;99.90;;;;;;5069975;28;20201;-66
2024/01/28 02:44:47;;;;;;;22.27;5.17;;;7.00;99.90;;;;;;5069774;28;20518;-65
2024/01/28 02:47:16;;;;;;;11.37;4.23;;;7.00;99.90;;;;;;5069298;28;20231;-64
2024/01/28 02:49:44;;;;;;;13.53;4.43;;;6.90;99.90;;;;;;5077656;28;20192;-65
2024/01/28 02:52:12;;;;;;;13.23;4.60;;;6.80;99.90;;;;;;5091100;28;20203;-65
2024/01/28 02:54:41;;;;;;;14.73;4.47;;;6.90;99.90;;;;;;5090939;28;20195;-64
2024/01/28 02:57:09;;;;;;;12.17;4.10;;;6.80;99.90;;;;;;5090545;28;20204;-64
2024/01/28 02:59:39;;;;;;;8.70;4.37;;;6.80;99.90;;;;;;5090278;28;20280;-65
2024/01/28 03:02:08;;;;;;;13.47;4.00;;;6.90;99.90;;;;;;5089901;28;20666;-66
2024/01/28 03:04:37;;;;;;;9.27;3.73;;;6.90;99.90;;;;;;5090246;28;20689;-65
2024/01/28 03:07:06;;;;;;;19.30;4.70;;;7.00;99.90;;;;;;5090319;28;20232;-65
2024/01/28 03:09:34;;;;;;;10.67;3.67;;;7.10;99.90;;;;;;5090335;28;20197;-67
2024/01/28 03:12:03;;;;;;;15.63;4.17;;;7.20;99.90;;;;;;5090053;28;20193;-63
2024/01/28 03:14:31;;;;;;;13.77;4.10;;;7.20;99.90;;;;;;5090253;28;20193;-64
2024/01/28 03:17:01;;;;;;;13.73;4.90;;;7.20;99.90;;;;;;5071817;28;20840;-64
2024/01/28 03:19:29;;;;;;;16.67;4.73;;;7.20;99.90;;;;;;5089687;28;20244;-65
2024/01/28 03:21:58;;;;;;;13.37;4.23;;;7.30;99.90;;;;;;5089574;28;20193;-65
2024/01/28 03:24:26;;;;;;;14.47;4.30;;;7.40;99.90;;;;;;5090252;28;20235;-66
2024/01/28 03:26:54;;;;;;;15.43;4.80;;;7.40;99.90;;;;;;5089518;28;20219;-66
2024/01/28 03:29:23;;;;;;;10.00;3.77;;;7.40;99.90;;;;;;5088341;28;20938;-64
2024/01/28 03:31:51;;;;;;;15.53;4.47;;;7.40;99.90;;;;;;5089757;28;20691;-65
2024/01/28 03:34:21;;;;;;;11.87;4.40;;;7.30;99.90;;;;;;5089832;28;20267;-64
2024/01/28 03:36:49;;;;;;;18.83;4.57;;;7.30;99.90;;;;;;5089965;28;20193;-65
2024/01/28 03:39:18;;;;;;;14.17;4.40;;;7.30;99.90;;;;;;5089780;28;20220;-65
2024/01/28 03:41:46;;;;;;;11.80;3.73;;;7.20;99.90;;;;;;5089536;28;20201;-66
2024/01/28 03:44:20;;;;;;;16.57;3.83;;;7.30;99.90;;;;;;5089596;28;20295;-65
2024/01/28 03:46:48;;;;;;;11.77;3.17;;;7.20;99.90;;;;;;5089485;28;20223;-65
2024/01/28 03:49:17;;;;;;;11.63;4.07;;;7.10;99.90;;;;;;5089229;28;20567;-65
2024/01/28 03:51:47;;;;;;;8.87;3.23;;;7.20;99.90;;;;;;5089291;28;20499;-65
2024/01/28 03:54:16;;;;;;;19.73;4.37;;;7.20;99.90;;;;;;5089261;28;20670;-64
2024/01/28 03:56:44;;;;;;;16.67;3.70;;;7.20;99.90;;;;;;5089209;28;20200;-64
2024/01/28 03:59:13;;;;;;;10.00;3.47;;;7.10;99.90;;;;;;5071050;28;20220;-65
2024/01/28 04:01:42;;;;;;;10.50;4.00;;;7.10;99.90;;;;;;5089258;28;20207;-64
2024/01/28 04:04:10;;;;;;;9.77;3.37;;;7.00;99.90;;;;;;5088770;28;20193;-66
2024/01/28 04:06:43;;;;;;;13.30;4.27;;;7.00;99.90;;;;;;5087921;28;20873;-67
2024/01/28 04:09:13;;;;;;;8.83;3.43;;;7.00;99.90;;;;;;5088999;28;20690;-64
2024/01/28 04:11:42;;;;;;;8.63;4.00;;;7.00;99.90;;;;;;5088832;28;20200;-64
2024/01/28 04:14:10;;;;;;;6.63;3.33;;;6.90;99.90;;;;;;5088698;28;20203;-66
2024/01/28 04:16:38;;;;;;;8.33;3.37;;;7.00;99.90;;;;;;5088991;28;20203;-65
2024/01/28 04:19:07;;;;;;;10.90;3.60;;;6.90;99.90;;;;;;5088995;28;20211;-64
2024/01/28 04:21:36;;;;;;;10.50;4.13;;;6.90;99.90;;;;;;5088659;28;20204;-65
2024/01/28 04:24:04;;;;;;;22.47;10.87;;;6.90;99.90;;;;;;5088649;28;20200;-64
2024/01/28 04:26:34;;;;;;;14.10;4.57;;;7.00;99.90;;;;;;5088837;28;20224;-65
2024/01/28 04:29:02;;;;;;;7.20;3.43;;;7.00;99.90;;;;;;5088755;28;20205;-65
2024/01/28 04:31:31;;;;;;;8.97;3.43;;;7.00;99.90;;;;;;5087879;28;20316;-66
2024/01/28 04:34:00;;;;;;;10.17;3.87;;;7.00;99.90;;;;;;5088305;28;20200;-65
2024/01/28 04:36:28;;;;;;;7.27;3.50;;;7.00;99.90;;;;;;5089062;28;20204;-64
2024/01/28 04:38:56;;;;;;;9.37;3.97;;;7.00;99.90;;;;;;5088605;28;20214;-65
2024/01/28 04:41:25;;;;;;;13.60;3.80;;;7.00;99.90;;;;;;5088469;28;20659;-66
2024/01/28 04:43:55;;;;;;;5.23;3.03;;;7.00;99.90;;;;;;5088665;28;20193;-65
2024/01/28 04:46:24;;;;;;;5.27;3.00;;;6.90;99.90;;;;;;5088921;28;20201;-65
2024/01/28 04:48:52;;;;;;;6.07;2.87;;;6.80;99.90;;;;;;5088532;28;20250;-64
2024/01/28 04:51:21;;;;;;;6.83;2.63;;;6.80;99.90;;;;;;5088442;28;20201;-65
2024/01/28 04:53:49;;;;;;;9.87;3.20;;;6.80;99.90;;;;;;5088556;28;20682;-65
2024/01/28 04:56:17;;;;;;;7.80;3.07;;;6.80;99.90;;;;;;5088498;28;20247;-65
2024/01/28 04:58:46;;;;;;;4.63;3.13;;;6.70;99.90;;;;;;5088409;28;20188;-64
2024/01/28 05:01:15;;;;;;;14.70;5.20;;;6.80;99.90;;;;;;5069684;28;20205;-65
2024/01/28 05:03:44;;;;;;;13.43;3.80;;;6.90;99.90;;;;;;5088144;28;20650;-64
2024/01/28 05:06:12;;;;;;;10.20;3.87;;;6.90;99.90;;;;;;5088486;28;20219;-64
2024/01/28 05:08:41;;;;;;;6.03;3.93;;;6.90;99.90;;;;;;5087982;28;20664;-64
2024/01/28 05:11:09;;;;;;;9.03;2.90;;;6.90;99.90;;;;;;5088276;28;20219;-64
2024/01/28 05:13:38;;;;;;;6.63;3.43;;;6.90;99.90;;;;;;5088137;28;20192;-65
2024/01/28 05:16:07;;;;;;;8.57;3.13;;;6.90;99.90;;;;;;5088251;28;20753;-63
2024/01/28 05:18:36;;;;;;;9.43;3.03;;;6.90;99.90;;;;;;5070086;28;20189;-64
2024/01/28 05:21:05;;;;;;;7.40;3.40;;;7.00;99.90;;;;;;5088017;28;20686;-65
2024/01/28 05:23:33;;;;;;;7.47;3.27;;;7.00;99.90;;;;;;5088100;28;20284;-68
2024/01/28 05:26:02;;;;;;;7.27;3.67;;;7.10;99.90;;;;;;5087881;28;20254;-65
2024/01/28 05:28:30;;;;;;;7.03;3.33;;;7.00;99.90;;;;;;5088010;28;20248;-64
2024/01/28 05:30:58;;;;;;;6.00;3.37;;;7.10;99.90;;;;;;5087978;28;20232;-64
2024/01/28 05:33:28;;;;;;;10.83;3.47;;;7.10;99.90;;;;;;5087963;28;20202;-65
2024/01/28 05:35:58;;;;;;;12.57;3.37;;;7.10;99.90;;;;;;5087400;28;20193;-64
2024/01/28 05:38:29;;;;;;;6.53;2.97;;;7.10;99.90;;;;;;5088485;28;20200;-65
2024/01/28 05:40:57;;;;;;;11.03;3.07;;;7.10;99.90;;;;;;5087885;28;20204;-64
2024/01/28 05:43:25;;;;;;;7.67;4.30;;;7.00;99.90;;;;;;5074120;28;20242;-66
2024/01/28 05:45:53;;;;;;;6.90;4.23;;;7.00;99.90;;;;;;5091452;28;20200;-64
2024/01/28 05:48:22;;;;;;;5.70;2.80;;;7.00;99.90;;;;;;5091818;28;20766;-64
2024/01/28 05:50:50;;;;;;;9.10;2.87;;;6.90;99.90;;;;;;5092157;28;20200;-65
2024/01/28 05:53:20;;;;;;;10.10;3.37;;;7.00;99.90;;;;;;5091716;28;20218;-66
2024/01/28 05:55:48;;;;;;;10.80;3.50;;;7.00;99.90;;;;;;5091872;28;20217;-64
2024/01/28 05:58:16;;;;;;;8.30;3.23;;;7.00;99.90;;;;;;5072898;28;20596;-65
2024/01/28 06:00:46;;;;;;;7.97;3.27;;;7.00;99.90;;;;;;5091570;28;20197;-66
2024/01/28 06:03:14;;;;;;;9.70;3.83;;;7.10;99.90;;;;;;5091384;28;20198;-65
2024/01/28 06:05:43;;;;;;;9.83;3.50;;;7.00;99.90;;;;;;5091345;28;20228;-64
2024/01/28 06:08:13;;;;;;;6.13;3.20;;;7.00;99.90;;;;;;5091523;28;20249;-64
2024/01/28 06:10:43;;;;;;;13.27;3.33;;;7.10;99.90;;;;;;5091294;28;20231;-64
2024/01/28 06:13:12;;;;;;;4.87;3.30;;;6.90;99.90;;;;;;5091533;28;20209;-64
2024/01/28 06:15:40;;;;;;;16.30;3.77;;;7.00;99.90;;;;;;5091183;28;20227;-64
2024/01/28 06:18:08;;;;;;;11.63;3.83;;;7.10;99.90;;;;;;5091154;28;20196;-63
2024/01/28 06:20:37;;;;;;;5.00;3.17;;;7.00;99.90;;;;;;5091449;28;20671;-64
2024/01/28 06:23:05;;;;;;;9.23;3.50;;;7.00;99.90;;;;;;5091529;28;20196;-64
2024/01/28 06:25:33;;;;;;;10.23;4.20;;;7.00;99.90;;;;;;5091544;28;20326;-64
2024/01/28 06:28:03;;;;;;;37.37;20.10;;;7.00;99.90;;;;;;5091259;28;20213;-66
2024/01/28 06:30:32;;;;;;;8.00;3.87;;;7.10;99.90;;;;;;5091128;28;20347;-65
2024/01/28 06:33:00;;;;;;;12.13;3.90;;;6.90;99.90;;;;;;5091335;28;20204;-66
2024/01/28 06:35:29;;;;;;;11.17;4.27;;;6.90;99.90;;;;;;5091292;28;20249;-66
2024/01/28 06:37:57;;;;;;;9.87;3.90;;;6.90;99.90;;;;;;5091213;28;20205;-66
2024/01/28 06:40:26;;;;;;;10.70;3.43;;;7.00;99.90;;;;;;5090904;28;20200;-66
2024/01/28 06:42:54;;;;;;;8.43;3.73;;;7.00;99.90;;;;;;5090808;28;20240;-66
2024/01/28 06:45:24;;;;;;;10.27;3.87;;;6.90;99.90;;;;;;5090893;28;20329;-65
2024/01/28 06:47:54;;;;;;;6.73;3.20;;;7.00;99.90;;;;;;5090655;28;20217;-64
2024/01/28 06:50:22;;;;;;;10.83;3.20;;;6.90;99.90;;;;;;5072161;28;20201;-64
2024/01/28 06:52:51;;;;;;;6.77;2.80;;;6.80;99.90;;;;;;5090723;28;20188;-66
2024/01/28 06:55:19;;;;;;;7.83;3.33;;;6.90;99.90;;;;;;5090020;28;20204;-64
2024/01/28 06:57:47;;;;;;;7.20;3.17;;;6.80;99.90;;;;;;5090823;28;20608;-64
2024/01/28 07:00:16;;;;;;;12.10;3.03;;;6.80;99.90;;;;;;5090654;28;20254;-65
2024/01/28 07:02:47;;;;;;;14.00;4.50;;;6.80;99.90;;;;;;5090716;28;20272;-64
2024/01/28 07:05:15;;;;;;;9.83;3.93;;;6.70;99.90;;;;;;5090319;28;20220;-63
2024/01/28 07:07:43;;;;;;;10.27;3.77;;;6.70;99.90;;;;;;5090485;28;20193;-65
2024/01/28 07:10:12;;;;;;;8.30;3.80;;;6.80;99.90;;;;;;5090559;28;20200;-68
2024/01/28 07:12:41;;;;;;;12.20;4.17;;;6.90;99.90;;;;;;5090258;28;20658;-67
2024/01/28 07:15:10;;;;;;;9.60;3.80;;;6.80;99.90;;;;;;5090565;28;20367;-64
2024/01/28 07:17:38;;;;;;;5.73;3.33;;;6.80;99.90;;;;;;5090551;28;20271;-64
2024/01/28 07:20:09;;;;;;;12.00;3.53;;;6.80;99.90;;;;;;5090364;28;20224;-64
2024/01/28 07:22:38;;;;;;;11.30;5.30;;;6.70;99.90;;;;;;5090387;28;20681;-63
2024/01/28 07:25:07;;;;;;;12.57;5.20;;;6.70;99.90;;;;;;5090691;28;20550;-64
2024/01/28 07:27:35;;;;;;;10.90;3.60;;;6.70;99.90;;;;;;5090339;28;20563;-64
2024/01/28 07:30:04;;;;;;;8.53;3.87;;;6.90;99.90;;;;;;5089811;28;20240;-63
2024/01/28 07:32:32;;;;;;;9.93;3.93;;;6.80;99.90;;;;;;5090021;28;20200;-65
2024/01/28 07:35:01;;;;;;;8.73;4.57;;;6.70;99.90;;;;;;5089956;28;20219;-63
2024/01/28 07:37:30;;;;;;;12.03;5.20;;;6.80;99.90;;;;;;5090197;28;20227;-67
2024/01/28 07:39:59;;;;;;;16.07;7.20;;;6.60;99.90;;;;;;5089838;28;20209;-67
2024/01/28 07:42:27;;;;;;;10.83;4.23;;;6.60;99.90;;;;;;5089833;28;20182;-67
2024/01/28 07:44:55;;;;;;;6.20;3.83;;;6.70;99.90;;;;;;5090081;28;20196;-64
2024/01/28 07:47:24;;;;;;;9.27;3.90;;;6.70;99.90;;;;;;5089858;28;20197;-69
2024/01/28 07:49:52;;;;;;;8.90;4.00;;;6.70;99.90;;;;;;5089401;28;20216;-65
2024/01/28 07:52:20;;;;;;;13.73;4.50;;;6.90;99.90;;;;;;5089751;28;20203;-67
2024/01/28 07:54:50;;;;;;;9.03;4.40;;;6.90;99.90;;;;;;5089699;28;20543;-67
2024/01/28 07:57:18;;;;;;;9.27;3.70;;;6.80;99.90;;;;;;5089374;28;20204;-65
2024/01/28 07:59:47;;;;;;;10.97;4.80;;;6.90;99.90;;;;;;5089640;28;20559;-65
2024/01/28 08:02:15;;;;;;;9.53;5.27;;;6.90;99.90;;;;;;5089512;28;20189;-65
2024/01/28 08:04:45;;;;;;;7.23;3.47;;;7.00;99.90;;;;;;5089261;28;20200;-68
2024/01/28 08:07:14;;;;;;;6.37;3.27;;;7.10;99.90;;;;;;5089339;28;20195;-66
2024/01/28 08:09:42;;;;;;;5.73;3.40;;;7.20;99.90;;;;;;5088991;28;20250;-66
2024/01/28 08:12:12;;;;;;;8.10;3.80;;;7.10;99.90;;;;;;5089151;28;20671;-64
2024/01/28 08:14:40;;;;;;;7.77;3.13;;;7.10;99.90;;;;;;5089339;28;20204;-64
2024/01/28 08:17:09;;;;;;;9.43;4.03;;;7.20;99.90;;;;;;5089221;28;20193;-63
2024/01/28 08:19:38;;;;;;;15.57;8.37;;;7.30;99.90;;;;;;5088992;28;20204;-70
2024/01/28 08:22:06;;;;;;;8.00;4.67;;;7.40;99.90;;;;;;5088847;28;20671;-66
2024/01/28 08:24:37;;;;;;;8.53;4.00;;;7.40;99.90;;;;;;5088843;28;20190;-67
2024/01/28 08:27:06;;;;;;;10.03;3.90;;;7.30;99.90;;;;;;5089159;28;20201;-66
2024/01/28 08:29:37;;;;;;;15.73;4.63;;;7.20;99.90;;;;;;5088594;28;20212;-65
2024/01/28 08:32:06;;;;;;;13.27;4.37;;;7.20;99.90;;;;;;5088946;28;20202;-66
2024/01/28 08:34:35;;;;;;;12.23;5.73;;;7.10;99.90;;;;;;5088688;28;20196;-65
2024/01/28 08:37:04;;;;;;;12.13;4.47;;;7.00;99.90;;;;;;5088802;28;20699;-64
2024/01/28 08:39:32;;;;;;;9.77;4.43;;;7.10;99.90;;;;;;5088806;28;20665;-67
2024/01/28 08:42:01;;;;;;;10.77;4.17;;;7.20;99.90;;;;;;5088549;28;20273;-64
2024/01/28 08:44:29;;;;;;;6.37;4.00;;;7.10;99.90;;;;;;5088687;28;20216;-67
2024/01/28 08:46:59;;;;;;;13.73;4.20;;;7.10;99.90;;;;;;5088655;28;20204;-66
2024/01/28 08:49:27;;;;;;;13.03;4.70;;;7.10;99.90;;;;;;5088336;28;20228;-66
2024/01/28 08:51:55;;;;;;;9.43;4.57;;;7.20;99.90;;;;;;5088904;28;20647;-66
2024/01/28 08:54:24;;;;;;;16.60;5.53;;;7.30;99.90;;;;;;5088623;28;20197;-65
2024/01/28 08:56:52;;;;;;;13.13;7.60;;;7.30;99.90;;;;;;5088725;28;20192;-65
2024/01/28 08:59:21;;;;;;;10.10;4.63;;;7.30;99.90;;;;;;5088455;28;20207;-65
2024/01/28 09:01:51;;;;;;;20.77;9.83;;;7.30;99.90;;;;;;5088564;28;20559;-64
2024/01/28 09:04:21;;;;;;;13.50;5.17;;;7.30;99.90;;;;;;5088277;28;20200;-65
2024/01/28 09:06:50;;;;;;;8.87;3.87;;;7.30;99.90;;;;;;5088631;28;20262;-65
2024/01/28 09:09:18;;;;;;;10.30;4.27;;;7.00;99.90;;;;;;5088508;28;20221;-65
2024/01/28 09:11:46;;;;;;;17.10;7.23;;;7.10;99.90;;;;;;5088197;28;20205;-65
2024/01/28 09:14:17;;;;;;;13.00;5.13;;;7.20;99.90;;;;;;5088493;28;20238;-64
2024/01/28 09:16:46;;;;;;;8.17;4.20;;;7.30;99.90;;;;;;5089071;28;20201;-65
2024/01/28 09:19:14;;;;;;;6.67;4.10;;;7.20;99.90;;;;;;5092369;28;20200;-65
2024/01/28 09:21:44;;;;;;;11.73;5.93;;;7.20;99.90;;;;;;5092704;28;20192;-64
2024/01/28 09:24:12;;;;;;;8.27;4.80;;;7.20;99.90;;;;;;5092620;28;20243;-65
2024/01/28 09:26:41;;;;;;;10.00;4.53;;;7.10;99.90;;;;;;5092628;28;20200;-64
2024/01/28 09:29:11;;;;;;;10.57;5.57;;;7.20;99.90;;;;;;5092332;28;20230;-64
2024/01/28 09:31:44;;;;;;;8.30;5.07;;;7.20;99.90;;;;;;5092241;28;20622;-64
2024/01/28 09:34:12;;;;;;;14.03;6.07;;;7.30;99.90;;;;;;5092191;28;20196;-64
2024/01/28 09:36:41;;;;;;;18.37;10.30;;;7.40;99.90;;;;;;5092145;28;20204;-63
2024/01/28 09:39:11;;;;;;;13.37;5.63;;;7.30;99.90;;;;;;5092235;28;20189;-65
2024/01/28 09:41:46;;;;;;;12.77;4.80;;;7.10;99.90;;;;;;5092136;28;20198;-64
2024/01/28 09:44:14;;;;;;;15.67;4.60;;;7.10;99.90;;;;;;5092448;28;20207;-65
2024/01/28 09:46:43;;;;;;;8.97;4.43;;;7.00;99.90;;;;;;5092293;28;20200;-64
2024/01/28 09:49:13;;;;;;;10.03;4.43;;;7.00;99.90;;;;;;5092005;28;20268;-63
2024/01/28 09:51:42;;;;;;;8.67;4.70;;;7.00;99.90;;;;;;5092099;28;20638;-65
2024/01/28 09:54:12;;;;;;;9.47;5.03;;;7.10;99.90;;;;;;5092161;28;20295;-65
2024/01/28 09:56:42;;;;;;;11.70;6.57;;;7.20;99.90;;;;;;5092226;28;20211;-65
2024/01/28 09:59:13;;;;;;;17.93;6.77;;;7.30;99.90;;;;;;5092311;28;20589;-64
2024/01/28 10:01:43;;;;;;;12.90;5.03;;;7.40;99.90;;;;;;5092026;28;20208;-64
2024/01/28 10:04:11;;;;;;;9.13;4.80;;;7.40;99.90;;;;;;5091865;28;20224;-65
2024/01/28 10:06:40;;;;;;;13.13;5.30;;;7.30;99.90;;;;;;5091786;28;20616;-65
2024/01/28 10:09:10;;;;;;;11.43;5.63;;;7.30;99.90;;;;;;5091876;28;20282;-65
2024/01/28 10:11:39;;;;;;;11.93;5.10;;;7.40;99.90;;;;;;5091222;28;20227;-64
2024/01/28 10:14:08;;;;;;;7.87;4.97;;;7.50;99.90;;;;;;5091530;28;20599;-64
2024/01/28 10:16:38;;;;;;;12.30;5.10;;;7.60;99.90;;;;;;5091722;28;20618;-65
2024/01/28 10:19:06;;;;;;;11.67;5.07;;;7.50;99.90;;;;;;5091642;28;20204;-64
2024/01/28 10:21:35;;;;;;;13.07;5.33;;;7.40;99.90;;;;;;5091551;28;20197;-65
2024/01/28 10:24:04;;;;;;;29.53;16.90;;;7.50;99.90;;;;;;5091761;28;20214;-65
2024/01/28 10:26:34;;;;;;;7.77;5.70;;;7.50;99.90;;;;;;5091271;28;20693;-65
2024/01/28 10:29:06;;;;;;;14.07;6.77;;;7.40;99.90;;;;;;5090103;28;20197;-65
2024/01/28 10:31:35;;;;;;;12.47;5.67;;;7.50;99.90;;;;;;5091175;28;20291;-64
2024/01/28 10:34:03;;;;;;;15.30;5.43;;;7.50;99.90;;;;;;5091170;28;20559;-64
2024/01/28 10:36:34;;;;;;;9.83;4.40;;;7.50;99.90;;;;;;5091155;28;20227;-66
2024/01/28 10:39:04;;;;;;;12.13;4.80;;;7.70;99.90;;;;;;5091055;28;20250;-64
2024/01/28 10:41:35;;;;;;;10.40;5.53;;;7.80;99.90;;;;;;5091220;28;20201;-64
2024/01/28 10:44:06;;;;;;;13.77;7.53;;;7.90;99.90;;;;;;5091058;28;20188;-64
2024/01/28 10:46:38;;;;;;;11.33;6.13;;;8.10;99.90;;;;;;5091200;28;20200;-65
2024/01/28 10:49:08;;;;;;;13.03;4.80;;;8.30;99.90;;;;;;5090959;28;20611;-64
2024/01/28 10:51:37;;;;;;;11.10;4.63;;;8.30;99.90;;;;;;5090626;28;20224;-65
2024/01/28 10:54:08;;;;;;;11.77;4.97;;;8.20;99.90;;;;;;5090931;28;20197;-65
2024/01/28 10:56:39;;;;;;;12.37;4.43;;;7.80;99.90;;;;;;5090776;28;20196;-63
2024/01/28 10:59:08;;;;;;;10.83;4.73;;;8.00;99.90;;;;;;5090663;28;20559;-64
2024/01/28 11:01:37;;;;;;;13.27;4.50;;;8.20;99.90;;;;;;5090583;28;20325;-64
2024/01/28 11:07:51;;;;;;;10.63;3.97;;;8.10;99.90;;;;;;5027791;28;20211;-66
2024/01/28 11:10:21;;;;;;;8.27;4.80;;;8.20;99.90;;;;;;5027612;28;20223;-66
2024/01/28 11:12:51;;;;;;;8.23;4.40;;;8.40;99.90;;;;;;5027825;28;20210;-64
2024/01/28 11:15:21;;;;;;;10.73;6.83;;;8.30;99.90;;;;;;5027850;28;20212;-65
2024/01/28 11:17:50;;;;;;;15.10;5.20;;;8.40;99.90;;;;;;5027742;28;20201;-63
2024/01/28 11:20:27;;;;;;;7.70;4.30;;;8.40;99.90;;;;;;5027513;28;20200;-64
2024/01/28 11:22:58;;;;;;;7.53;4.30;;;8.50;99.90;;;;;;5027694;28;20621;-67
2024/01/28 11:25:28;;;;;;;11.80;5.43;;;8.40;99.90;;;;;;5027719;28;20200;-66
2024/01/28 11:28:02;;;;;;;9.90;4.50;;;8.60;99.90;;;;;;5027659;28;20611;-66
2024/01/28 11:30:30;;;;;;;12.77;4.67;;;8.80;99.50;;;;;;5027366;28;20246;-63
2024/01/28 11:33:09;;;;;;;13.57;4.23;;;8.70;99.00;;;;;;5027435;28;20734;-66
2024/01/28 11:35:40;;;;;;;8.33;4.47;;;8.50;99.60;;;;;;5027228;28;20207;-64
2024/01/28 11:38:10;;;;;;;7.73;4.77;;;8.60;99.90;;;;;;5027549;28;20378;-66
2024/01/28 11:40:39;;;;;;;12.47;7.53;;;8.70;99.90;;;;;;5027123;28;20718;-66
2024/01/28 11:43:10;;;;;;;10.70;4.70;;;8.90;99.90;;;;;;5027452;28;20207;-67
2024/01/28 11:45:39;;;;;;;7.90;4.10;;;8.80;99.00;;;;;;5080621;28;20203;-63
2024/01/28 11:48:08;;;;;;;10.43;5.40;;;8.90;99.20;;;;;;5089857;28;20289;-68
2024/01/28 11:50:38;;;;;;;8.17;4.53;;;9.10;98.00;;;;;;5089985;28;20279;-64
2024/01/28 11:53:09;;;;;;;12.67;5.23;;;9.20;97.40;;;;;;5090127;28;20206;-68
2024/01/28 11:55:38;;;;;;;10.77;5.47;;;9.10;97.70;;;;;;5089931;28;20201;-68
2024/01/28 11:58:06;;;;;;;9.73;4.30;;;9.20;99.20;;;;;;5090118;28;20185;-66
2024/01/28 12:00:36;;;;;;;10.57;4.93;;;9.20;97.40;;;;;;5071552;28;20203;-65
2024/01/28 12:03:05;;;;;;;9.13;5.17;;;9.20;97.80;;;;;;5090168;28;20324;-66
2024/01/28 12:05:34;;;;;;;10.53;4.93;;;9.30;97.10;;;;;;5089311;28;20207;-65
2024/01/28 12:08:03;;;;;;;8.23;4.67;;;9.40;97.40;;;;;;5089699;28;20283;-69
2024/01/28 12:10:34;;;;;;;14.63;6.97;;;9.30;95.60;;;;;;5089478;28;20226;-65
2024/01/28 12:13:05;;;;;;;22.63;10.50;;;9.30;97.30;;;;;;5089545;28;20232;-65
2024/01/28 12:15:35;;;;;;;8.87;5.90;;;9.20;96.80;;;;;;5089842;28;20377;-67
2024/01/28 12:18:04;;;;;;;17.40;6.83;;;9.40;97.00;;;;;;5089513;28;20199;-67
2024/01/28 12:20:32;;;;;;;9.67;4.80;;;9.30;96.20;;;;;;5089477;28;20273;-67
2024/01/28 12:23:00;;;;;;;10.47;5.67;;;9.10;96.90;;;;;;5089347;28;20202;-66
2024/01/28 12:25:29;;;;;;;12.00;5.30;;;9.20;97.20;;;;;;5089468;28;20189;-64
2024/01/28 12:27:57;;;;;;;7.03;4.83;;;9.10;96.70;;;;;;5089282;28;20204;-64
2024/01/28 12:30:25;;;;;;;9.27;4.10;;;8.80;97.80;;;;;;5089286;28;20228;-65
2024/01/28 12:32:56;;;;;;;12.67;5.63;;;8.60;99.50;;;;;;5089178;28;20319;-64
2024/01/28 12:35:24;;;;;;;6.33;3.20;;;8.60;99.40;;;;;;5089204;28;20297;-64
2024/01/28 12:37:52;;;;;;;8.33;4.07;;;8.60;99.10;;;;;;5089017;28;20282;-64
2024/01/28 12:40:21;;;;;;;8.30;4.33;;;8.50;99.90;;;;;;5088981;28;20209;-64
2024/01/28 12:42:49;;;;;;;9.03;4.77;;;8.60;99.90;;;;;;5089257;28;20665;-64
2024/01/28 12:45:18;;;;;;;11.03;4.03;;;8.40;99.60;;;;;;5088908;28;20195;-63
2024/01/28 12:47:46;;;;;;;8.23;4.40;;;8.50;99.90;;;;;;5088891;28;20201;-64
2024/01/28 12:50:16;;;;;;;31.73;17.13;;;8.50;99.50;;;;;;5088740;28;20193;-64
2024/01/28 12:52:44;;;;;;;14.73;5.70;;;8.50;99.90;;;;;;5087903;28;20297;-64
2024/01/28 12:55:12;;;;;;;14.07;6.10;;;8.40;99.90;;;;;;5088496;28;20201;-64
2024/01/28 12:57:42;;;;;;;10.90;6.43;;;8.30;99.90;;;;;;5088193;28;20199;-64
2024/01/28 13:00:14;;;;;;;11.80;6.77;;;8.20;99.90;;;;;;5088552;28;20200;-65
2024/01/28 13:02:43;;;;;;;17.07;7.80;;;8.30;99.90;;;;;;5088274;28;20259;-64